Time;durP1;ratioP1;P1;durP2;ratioP2;P2;SDS_P1;SDS_P2;PMS_P1;PMS_P2;Temp;Humidity;BMP_temperature;BMP_pressure;BME280_temperature;BME280_humidity;BME280_pressure;Samples;Min_cycle;Max_cycle;Signal;HPM_P1;HPM_P2
2024/03/12 00:02:20;;;;;;;52.28;30.37;;;;;;;;;;754603;186;919100;-60
2024/03/12 00:04:44;;;;;;;49.33;27.73;;;;;;;;;;747603;185;1844762;-60
2024/03/12 00:07:10;;;;;;;45.97;26.33;;;;;;;;;;754740;185;816185;-63
2024/03/12 00:09:37;;;;;;;52.75;25.30;;;;;;;;;;756561;184;818087;-61
2024/03/12 00:12:02;;;;;;;47.73;27.57;;;;;;;;;;752306;185;924293;-61
2024/03/12 00:14:28;;;;;;;44.93;26.53;;;;;;;;;;750129;186;868359;-62
2024/03/12 00:16:56;;;;;;;46.00;27.00;;;;;;;;;;752387;186;918367;-61
2024/03/12 00:19:19;;;;;;;43.60;21.47;;;;;;;;;;758484;183;816273;-60
2024/03/12 00:21:45;;;;;;;52.40;25.60;;;;;;;;;;750552;186;919538;-59
2024/03/12 00:24:11;;;;;;;40.87;22.13;;;;;;;;;;747872;184;921125;-60
2024/03/12 00:26:37;;;;;;;52.63;28.77;;;;;;;;;;754130;184;910767;-60
2024/03/12 00:29:04;;;;;;;46.85;26.52;;;;;;;;;;749882;184;948478;-60
2024/03/12 00:31:29;;;;;;;54.03;25.57;;;;;;;;;;748972;184;919100;-59
2024/03/12 00:33:57;;;;;;;40.90;23.20;;;;;;;;;;752804;186;918228;-61
2024/03/12 00:36:20;;;;;;;46.93;27.57;;;;;;;;;;751325;186;923433;-60
2024/03/12 00:38:46;;;;;;;45.10;24.37;;;;;;;;;;752468;186;834456;-59
2024/03/12 00:41:12;;;;;;;44.57;24.13;;;;;;;;;;748806;185;919019;-59
2024/03/12 00:43:38;;;;;;;41.97;21.43;;;;;;;;;;754978;183;918099;-61
2024/03/12 00:46:04;;;;;;;38.27;20.13;;;;;;;;;;750546;186;883459;-60
2024/03/12 00:48:30;;;;;;;37.50;22.43;;;;;;;;;;751362;186;924088;-59
2024/03/12 00:50:55;;;;;;;37.60;24.13;;;;;;;;;;752487;187;815085;-59
2024/03/12 00:53:21;;;;;;;40.97;23.60;;;;;;;;;;748116;186;919061;-60
2024/03/12 00:55:47;;;;;;;42.40;25.40;;;;;;;;;;751430;183;918149;-60
2024/03/12 00:58:13;;;;;;;38.27;22.97;;;;;;;;;;754801;186;919308;-60
2024/03/12 01:00:40;;;;;;;39.70;22.80;;;;;;;;;;749153;186;915912;-59
2024/03/12 01:03:08;;;;;;;44.17;24.60;;;;;;;;;;751255;183;906605;-59
2024/03/12 01:05:31;;;;;;;36.57;20.53;;;;;;;;;;750771;183;819654;-61
2024/03/12 01:07:59;;;;;;;46.73;25.07;;;;;;;;;;746945;186;917194;-62
2024/03/12 01:10:26;;;;;;;36.10;20.87;;;;;;;;;;746396;183;919026;-62
2024/03/12 01:12:51;;;;;;;34.28;15.85;;;;;;;;;;747886;186;817236;-62
2024/03/12 01:15:18;;;;;;;29.27;15.63;;;;;;;;;;757019;185;791968;-61
2024/03/12 01:17:42;;;;;;;38.73;21.90;;;;;;;;;;750608;185;815180;-62
2024/03/12 01:20:09;;;;;;;32.97;19.47;;;;;;;;;;751643;183;918358;-62
2024/03/12 01:22:34;;;;;;;37.10;21.33;;;;;;;;;;755083;185;1023479;-61
2024/03/12 01:25:00;;;;;;;32.07;18.67;;;;;;;;;;727287;190;921667;-61
2024/03/12 01:27:26;;;;;;;38.17;22.80;;;;;;;;;;728692;191;917556;-62
2024/03/12 01:29:51;;;;;;;32.40;20.37;;;;;;;;;;718775;194;919484;-61
2024/03/12 01:32:20;;;;;;;34.90;17.70;;;;;;;;;;722722;191;919409;-62
2024/03/12 01:34:44;;;;;;;42.60;24.33;;;;;;;;;;727613;189;922552;-62
2024/03/12 01:37:15;;;;;;;33.60;20.47;;;;;;;;;;722523;191;1022917;-62
2024/03/12 01:39:38;;;;;;;33.13;19.87;;;;;;;;;;715185;196;919229;-62
2024/03/12 01:42:02;;;;;;;39.03;20.60;;;;;;;;;;713461;194;918490;-62
2024/03/12 01:44:26;;;;;;;37.23;23.00;;;;;;;;;;746566;184;917353;-62
2024/03/12 01:46:52;;;;;;;39.10;22.07;;;;;;;;;;757942;186;916394;-62
2024/03/12 01:49:18;;;;;;;38.77;23.17;;;;;;;;;;750633;186;868379;-62
2024/03/12 01:51:44;;;;;;;33.67;20.70;;;;;;;;;;749145;186;1043974;-62
2024/03/12 01:54:11;;;;;;;43.87;24.15;;;;;;;;;;751097;184;819937;-61
2024/03/12 01:56:36;;;;;;;40.90;23.67;;;;;;;;;;745962;187;897402;-61
2024/03/12 01:59:02;;;;;;;34.10;20.40;;;;;;;;;;750940;186;837656;-61
2024/03/12 02:01:28;;;;;;;36.90;22.17;;;;;;;;;;751045;186;817581;-63
2024/03/12 02:03:54;;;;;;;36.00;17.00;;;;;;;;;;757127;186;916703;-61
2024/03/12 02:06:19;;;;;;;36.80;20.13;;;;;;;;;;754384;183;816044;-61
2024/03/12 02:08:45;;;;;;;33.20;19.23;;;;;;;;;;749998;185;920296;-62
2024/03/12 02:11:11;;;;;;;32.37;19.73;;;;;;;;;;754878;186;919637;-61
2024/03/12 02:13:37;;;;;;;40.73;18.10;;;;;;;;;;752836;186;918951;-61
2024/03/12 02:16:03;;;;;;;30.47;17.20;;;;;;;;;;751018;186;976552;-62
2024/03/12 02:18:29;;;;;;;28.87;19.40;;;;;;;;;;757931;186;816865;-62
2024/03/12 02:20:55;;;;;;;29.97;16.97;;;;;;;;;;747593;186;919560;-62
2024/03/12 02:23:21;;;;;;;26.37;16.27;;;;;;;;;;751075;184;815924;-61
2024/03/12 02:25:47;;;;;;;19.40;10.17;;;;;;;;;;748509;186;919111;-62
2024/03/12 02:28:12;;;;;;;23.97;15.33;;;;;;;;;;757554;185;915995;-64
2024/03/12 02:30:39;;;;;;;27.60;16.80;;;;;;;;;;751948;185;919570;-63
2024/03/12 02:33:05;;;;;;;36.27;18.00;;;;;;;;;;749429;185;919281;-63
2024/03/12 02:35:34;;;;;;;31.43;16.20;;;;;;;;;;757807;185;919183;-62
2024/03/12 02:37:56;;;;;;;29.20;17.33;;;;;;;;;;751636;186;919716;-62
2024/03/12 02:40:23;;;;;;;26.70;16.58;;;;;;;;;;747912;186;923897;-63
2024/03/12 02:42:48;;;;;;;20.63;13.63;;;;;;;;;;755484;186;921929;-62
2024/03/12 02:45:14;;;;;;;26.80;16.20;;;;;;;;;;751647;184;924163;-62
2024/03/12 02:47:41;;;;;;;28.47;15.80;;;;;;;;;;752633;186;919418;-62
2024/03/12 02:50:06;;;;;;;19.27;11.63;;;;;;;;;;750553;186;921039;-62
2024/03/12 02:52:32;;;;;;;26.03;15.53;;;;;;;;;;756560;186;919991;-62
2024/03/12 02:54:59;;;;;;;24.73;15.03;;;;;;;;;;752244;186;818093;-61
2024/03/12 02:57:23;;;;;;;19.83;12.87;;;;;;;;;;747031;186;918865;-62
2024/03/12 02:59:49;;;;;;;26.20;16.63;;;;;;;;;;756129;186;920493;-61
2024/03/12 03:02:15;;;;;;;11.67;7.47;;;;;;;;;;753220;185;919241;-61
2024/03/12 03:04:41;;;;;;;27.08;15.43;;;;;;;;;;752707;186;919748;-63
2024/03/12 03:07:07;;;;;;;20.67;12.33;;;;;;;;;;742415;187;916515;-62
2024/03/12 03:09:33;;;;;;;29.27;15.00;;;;;;;;;;741438;183;915297;-62
2024/03/12 03:11:59;;;;;;;26.67;16.08;;;;;;;;;;751228;186;915413;-61
2024/03/12 03:14:24;;;;;;;23.57;14.10;;;;;;;;;;738000;186;920621;-62
2024/03/12 03:16:50;;;;;;;22.47;14.40;;;;;;;;;;748359;186;913619;-61
2024/03/12 03:19:17;;;;;;;17.92;11.23;;;;;;;;;;750811;186;945549;-61
2024/03/12 03:21:42;;;;;;;17.97;11.73;;;;;;;;;;752097;186;1021594;-62
2024/03/12 03:24:08;;;;;;;18.27;12.20;;;;;;;;;;752019;186;915210;-63
2024/03/12 03:26:34;;;;;;;23.80;15.13;;;;;;;;;;751052;183;920223;-62
2024/03/12 03:28:59;;;;;;;25.43;14.80;;;;;;;;;;749096;183;918512;-61
2024/03/12 03:31:26;;;;;;;21.33;10.57;;;;;;;;;;756643;186;920191;-61
2024/03/12 03:33:51;;;;;;;20.80;14.03;;;;;;;;;;744173;185;919081;-60
2024/03/12 03:36:17;;;;;;;26.67;15.35;;;;;;;;;;752219;186;920138;-63
2024/03/12 03:38:43;;;;;;;24.20;15.27;;;;;;;;;;758144;185;819912;-61
2024/03/12 03:41:09;;;;;;;27.83;17.17;;;;;;;;;;751619;186;921766;-62
2024/03/12 03:43:35;;;;;;;26.60;16.20;;;;;;;;;;753042;185;867206;-62
2024/03/12 03:46:00;;;;;;;28.23;15.63;;;;;;;;;;749824;185;920591;-62
2024/03/12 03:48:26;;;;;;;17.97;12.07;;;;;;;;;;755799;185;920633;-61
2024/03/12 03:50:52;;;;;;;22.63;12.90;;;;;;;;;;750341;186;921119;-62
2024/03/12 03:53:18;;;;;;;22.60;15.53;;;;;;;;;;749940;183;847105;-62
2024/03/12 03:55:45;;;;;;;23.97;12.00;;;;;;;;;;756976;185;916073;-62
2024/03/12 03:58:10;;;;;;;22.47;12.33;;;;;;;;;;755205;185;922982;-63
2024/03/12 04:00:35;;;;;;;21.90;12.40;;;;;;;;;;753731;186;850272;-63
2024/03/12 04:03:02;;;;;;;17.50;10.40;;;;;;;;;;756488;183;813663;-63
2024/03/12 04:05:27;;;;;;;19.87;12.47;;;;;;;;;;750809;186;914263;-62
2024/03/12 04:07:54;;;;;;;19.17;11.40;;;;;;;;;;749286;183;939767;-63
2024/03/12 04:10:19;;;;;;;19.97;12.57;;;;;;;;;;748453;186;919252;-62
2024/03/12 04:12:45;;;;;;;19.20;12.00;;;;;;;;;;749657;186;919046;-63
2024/03/12 04:15:11;;;;;;;24.27;14.83;;;;;;;;;;752105;186;918821;-63
2024/03/12 04:17:37;;;;;;;27.37;16.40;;;;;;;;;;750480;186;817689;-62
2024/03/12 04:20:05;;;;;;;21.70;13.60;;;;;;;;;;752834;186;919567;-63
2024/03/12 04:22:28;;;;;;;20.13;11.60;;;;;;;;;;749043;186;920028;-62
2024/03/12 04:24:54;;;;;;;27.50;17.77;;;;;;;;;;751966;186;715258;-62
2024/03/12 04:27:20;;;;;;;31.40;20.10;;;;;;;;;;752658;186;920293;-63
2024/03/12 04:29:46;;;;;;;29.37;18.60;;;;;;;;;;755443;186;865766;-62
2024/03/12 04:32:12;;;;;;;36.13;20.50;;;;;;;;;;755726;186;627895;-63
2024/03/12 04:34:37;;;;;;;37.93;21.07;;;;;;;;;;753689;186;921452;-62
2024/03/12 04:37:04;;;;;;;34.80;20.43;;;;;;;;;;749302;186;814630;-62
2024/03/12 04:39:30;;;;;;;33.23;19.23;;;;;;;;;;748709;185;921104;-62
2024/03/12 04:41:59;;;;;;;29.47;19.30;;;;;;;;;;749850;186;918890;-63
2024/03/12 04:44:24;;;;;;;32.53;20.80;;;;;;;;;;757092;185;918350;-62
2024/03/12 04:46:49;;;;;;;32.00;18.00;;;;;;;;;;752458;186;918240;-62
2024/03/12 04:49:15;;;;;;;31.70;18.37;;;;;;;;;;754058;185;817278;-62
2024/03/12 04:51:41;;;;;;;32.80;19.93;;;;;;;;;;757532;185;916340;-62
2024/03/12 04:54:07;;;;;;;33.88;19.00;;;;;;;;;;751369;185;918671;-62
2024/03/12 04:56:33;;;;;;;36.63;20.45;;;;;;;;;;751549;185;922563;-62
2024/03/12 04:58:59;;;;;;;29.67;18.93;;;;;;;;;;751979;185;916663;-63
2024/03/12 05:01:24;;;;;;;31.80;19.13;;;;;;;;;;750063;185;840218;-63
2024/03/12 05:03:50;;;;;;;27.27;18.57;;;;;;;;;;751251;186;915914;-63
2024/03/12 05:06:16;;;;;;;26.93;18.47;;;;;;;;;;750794;186;875561;-65
2024/03/12 05:08:43;;;;;;;31.00;17.80;;;;;;;;;;755799;183;852591;-65
2024/03/12 05:11:08;;;;;;;30.20;18.93;;;;;;;;;;753194;186;915157;-63
2024/03/12 05:13:34;;;;;;;29.90;18.05;;;;;;;;;;751687;183;913868;-63
2024/03/12 05:16:00;;;;;;;33.27;19.57;;;;;;;;;;754413;186;917795;-63
2024/03/12 05:18:25;;;;;;;30.80;18.87;;;;;;;;;;750905;183;918479;-60
2024/03/12 05:20:51;;;;;;;28.48;16.55;;;;;;;;;;744273;185;934498;-65
2024/03/12 05:23:18;;;;;;;28.12;17.92;;;;;;;;;;748071;186;843879;-64
2024/03/12 05:25:46;;;;;;;30.87;16.20;;;;;;;;;;751420;186;817140;-61
2024/03/12 05:28:09;;;;;;;25.17;14.80;;;;;;;;;;751454;184;863138;-60
2024/03/12 05:30:37;;;;;;;25.00;13.93;;;;;;;;;;754409;186;711180;-60
2024/03/12 05:33:04;;;;;;;25.87;13.77;;;;;;;;;;753264;186;917351;-61
2024/03/12 05:35:31;;;;;;;21.50;13.20;;;;;;;;;;753411;186;913727;-61
2024/03/12 05:40:29;;;;;;;24.00;14.40;;;;;;;;;;752751;186;914183;-61
2024/03/12 05:50:26;;;;;;;23.50;15.60;;;;;;;;;;751568;183;615044;-61
2024/03/12 05:52:53;;;;;;;24.67;15.73;;;;;;;;;;758506;186;627461;-61
2024/03/12 05:55:17;;;;;;;27.90;17.37;;;;;;;;;;754788;186;618507;-63
2024/03/12 05:57:44;;;;;;;27.47;17.43;;;;;;;;;;752747;186;638838;-63
2024/03/12 06:00:11;;;;;;;24.87;16.63;;;;;;;;;;756221;186;700336;-63
2024/03/12 06:02:36;;;;;;;26.17;15.02;;;;;;;;;;754724;185;920411;-63
2024/03/12 06:05:02;;;;;;;26.73;16.17;;;;;;;;;;757170;185;616098;-64
2024/03/12 06:07:28;;;;;;;28.70;16.17;;;;;;;;;;752071;186;915742;-64
2024/03/12 06:09:54;;;;;;;28.07;15.90;;;;;;;;;;748531;185;916681;-61
2024/03/12 06:12:20;;;;;;;26.40;15.80;;;;;;;;;;742273;186;921987;-60
2024/03/12 06:14:46;;;;;;;28.30;16.53;;;;;;;;;;741065;187;920329;-62
2024/03/12 06:17:12;;;;;;;30.43;18.27;;;;;;;;;;751891;186;916949;-60
2024/03/12 06:19:37;;;;;;;35.60;17.13;;;;;;;;;;752584;186;916675;-60
2024/03/12 06:22:03;;;;;;;36.23;18.30;;;;;;;;;;751033;186;922532;-61
2024/03/12 06:24:30;;;;;;;30.13;17.80;;;;;;;;;;756244;186;817738;-60
2024/03/12 06:26:56;;;;;;;24.42;14.20;;;;;;;;;;750726;186;919208;-60
2024/03/12 06:29:22;;;;;;;31.87;19.53;;;;;;;;;;747227;184;918599;-62
2024/03/12 06:31:47;;;;;;;25.47;14.63;;;;;;;;;;757922;186;907286;-64
2024/03/12 06:34:12;;;;;;;25.80;14.37;;;;;;;;;;748829;184;848409;-61
2024/03/12 06:36:40;;;;;;;26.40;15.67;;;;;;;;;;749497;186;917996;-60
2024/03/12 06:39:05;;;;;;;17.33;12.10;;;;;;;;;;750971;186;853464;-60
2024/03/12 06:41:31;;;;;;;22.27;15.40;;;;;;;;;;755239;186;808251;-60
2024/03/12 06:43:56;;;;;;;22.50;13.93;;;;;;;;;;750415;185;819720;-60
2024/03/12 06:46:22;;;;;;;21.30;13.10;;;;;;;;;;750956;186;761432;-64
2024/03/12 06:48:48;;;;;;;19.83;13.80;;;;;;;;;;753993;186;911722;-63
2024/03/12 06:51:13;;;;;;;27.67;15.80;;;;;;;;;;750284;186;813719;-63
2024/03/12 06:53:39;;;;;;;22.63;13.60;;;;;;;;;;750815;186;916432;-60
2024/03/12 06:56:07;;;;;;;23.20;13.27;;;;;;;;;;754167;183;918517;-61
2024/03/12 06:58:31;;;;;;;24.67;15.33;;;;;;;;;;747772;186;919280;-60
2024/03/12 07:00:57;;;;;;;27.80;16.90;;;;;;;;;;749054;186;920128;-63
2024/03/12 07:03:24;;;;;;;28.50;15.97;;;;;;;;;;748958;183;1020526;-62
2024/03/12 07:05:49;;;;;;;25.03;14.93;;;;;;;;;;753038;186;816955;-61
2024/03/12 07:08:17;;;;;;;25.10;16.03;;;;;;;;;;749286;186;925387;-61
2024/03/12 07:10:40;;;;;;;24.57;14.80;;;;;;;;;;750216;183;925131;-66
2024/03/12 07:13:07;;;;;;;24.30;15.45;;;;;;;;;;757457;185;919102;-60
2024/03/12 07:15:33;;;;;;;24.90;15.70;;;;;;;;;;753656;186;818015;-61
2024/03/12 07:17:59;;;;;;;28.65;16.30;;;;;;;;;;751152;185;919346;-60
2024/03/12 07:20:27;;;;;;;27.40;16.23;;;;;;;;;;755591;185;816935;-61
2024/03/12 07:22:51;;;;;;;24.10;17.40;;;;;;;;;;732507;188;917975;-60
2024/03/12 07:25:17;;;;;;;25.33;17.45;;;;;;;;;;749078;185;914690;-63
2024/03/12 07:27:42;;;;;;;26.10;18.00;;;;;;;;;;754023;186;815647;-63
2024/03/12 07:30:10;;;;;;;32.77;19.57;;;;;;;;;;751908;186;911360;-61
2024/03/12 07:32:36;;;;;;;24.83;15.37;;;;;;;;;;750589;184;914851;-64
2024/03/12 07:35:02;;;;;;;33.20;19.80;;;;;;;;;;751661;183;823189;-61
2024/03/12 07:37:28;;;;;;;33.77;22.50;;;;;;;;;;757364;184;877616;-61
2024/03/12 07:39:53;;;;;;;60.50;39.20;;;;;;;;;;750952;186;931816;-60
2024/03/12 07:42:19;;;;;;;38.17;26.87;;;;;;;;;;749695;186;919180;-60
2024/03/12 07:44:47;;;;;;;30.60;18.07;;;;;;;;;;754307;186;918752;-60
2024/03/12 07:47:14;;;;;;;32.23;23.87;;;;;;;;;;751220;183;1021409;-60
2024/03/12 07:49:41;;;;;;;30.17;22.20;;;;;;;;;;746635;186;918201;-63
2024/03/12 07:52:06;;;;;;;27.87;21.43;;;;;;;;;;746876;186;1023802;-62
2024/03/12 07:54:32;;;;;;;27.00;15.97;;;;;;;;;;755294;186;913790;-63
2024/03/12 07:56:59;;;;;;;29.60;19.80;;;;;;;;;;749421;184;920436;-62
2024/03/12 07:59:23;;;;;;;29.73;21.30;;;;;;;;;;753316;185;918690;-61
2024/03/12 08:01:52;;;;;;;23.20;16.50;;;;;;;;;;755102;186;916351;-62
2024/03/12 08:04:16;;;;;;;25.07;16.30;;;;;;;;;;750655;186;822162;-61
2024/03/12 08:06:43;;;;;;;28.23;16.73;;;;;;;;;;750818;186;818604;-63
2024/03/12 08:09:07;;;;;;;23.10;14.83;;;;;;;;;;755018;183;816134;-64
2024/03/12 08:11:33;;;;;;;27.60;19.70;;;;;;;;;;750937;186;918461;-64
2024/03/12 08:13:59;;;;;;;27.63;18.00;;;;;;;;;;749293;186;817187;-63
2024/03/12 08:16:25;;;;;;;24.40;17.37;;;;;;;;;;748696;186;919717;-64
2024/03/12 08:18:51;;;;;;;31.23;18.20;;;;;;;;;;755390;184;821767;-63
2024/03/12 08:21:17;;;;;;;28.03;18.00;;;;;;;;;;747447;184;896317;-63
2024/03/12 08:23:43;;;;;;;26.57;17.80;;;;;;;;;;746488;186;919780;-64
2024/03/12 08:26:10;;;;;;;32.43;20.20;;;;;;;;;;757741;184;1021541;-63
2024/03/12 08:28:34;;;;;;;29.57;18.67;;;;;;;;;;754838;183;917043;-63
2024/03/12 08:31:00;;;;;;;29.03;19.73;;;;;;;;;;751081;185;925483;-63
2024/03/12 08:33:26;;;;;;;25.10;17.60;;;;;;;;;;757915;186;860571;-61
2024/03/12 08:35:52;;;;;;;26.90;17.87;;;;;;;;;;749670;186;916924;-62
2024/03/12 08:38:19;;;;;;;27.83;15.87;;;;;;;;;;752231;186;861234;-62
2024/03/12 08:40:43;;;;;;;21.93;15.60;;;;;;;;;;750480;183;882313;-63
2024/03/12 08:43:09;;;;;;;26.20;16.43;;;;;;;;;;749156;186;916206;-63
2024/03/12 08:45:35;;;;;;;24.80;19.30;;;;;;;;;;749424;186;919520;-63
2024/03/12 08:48:03;;;;;;;29.85;22.48;;;;;;;;;;748720;186;899055;-61
2024/03/12 08:50:27;;;;;;;21.10;13.70;;;;;;;;;;757080;183;916672;-60
2024/03/12 08:52:53;;;;;;;26.97;16.40;;;;;;;;;;749566;186;919796;-61
2024/03/12 08:55:19;;;;;;;19.67;13.60;;;;;;;;;;750789;186;920194;-62
2024/03/12 08:57:45;;;;;;;16.27;12.50;;;;;;;;;;757806;185;613743;-63
2024/03/12 09:00:11;;;;;;;18.83;12.60;;;;;;;;;;752081;186;817864;-63
2024/03/12 09:02:38;;;;;;;35.17;21.12;;;;;;;;;;749329;186;916007;-63
2024/03/12 09:05:07;;;;;;;45.63;29.13;;;;;;;;;;749554;186;919714;-63
2024/03/12 09:07:29;;;;;;;39.10;26.77;;;;;;;;;;746533;186;1023681;-63
2024/03/12 09:09:58;;;;;;;33.93;23.70;;;;;;;;;;751670;186;917601;-63
2024/03/12 09:12:21;;;;;;;27.23;17.13;;;;;;;;;;750091;186;920733;-61
2024/03/12 09:14:46;;;;;;;25.93;15.53;;;;;;;;;;754009;183;918708;-61
2024/03/12 09:17:12;;;;;;;21.10;16.03;;;;;;;;;;749773;186;879202;-62
2024/03/12 09:19:38;;;;;;;23.07;16.23;;;;;;;;;;748022;186;968001;-63
2024/03/12 09:22:04;;;;;;;26.97;16.63;;;;;;;;;;754828;186;919146;-64
2024/03/12 09:24:30;;;;;;;22.10;15.47;;;;;;;;;;750018;186;858953;-62
2024/03/12 09:26:56;;;;;;;27.30;16.93;;;;;;;;;;751874;186;918341;-63
2024/03/12 09:29:22;;;;;;;25.33;16.07;;;;;;;;;;755726;186;918308;-64
2024/03/12 09:31:47;;;;;;;21.70;14.37;;;;;;;;;;748716;186;919666;-63
2024/03/12 09:34:13;;;;;;;24.17;15.13;;;;;;;;;;748842;186;919063;-63
2024/03/12 09:36:39;;;;;;;21.77;14.37;;;;;;;;;;748296;182;921686;-63
2024/03/12 09:39:10;;;;;;;25.00;15.17;;;;;;;;;;753618;186;919485;-64
2024/03/12 09:41:31;;;;;;;19.57;13.90;;;;;;;;;;749242;186;915283;-63
2024/03/12 09:43:56;;;;;;;23.30;14.03;;;;;;;;;;750738;186;916475;-63
2024/03/12 09:46:22;;;;;;;26.63;15.57;;;;;;;;;;755254;183;920746;-64
2024/03/12 09:48:48;;;;;;;25.90;14.97;;;;;;;;;;749248;186;920372;-63
2024/03/12 09:51:14;;;;;;;17.83;12.77;;;;;;;;;;752167;183;920989;-64
2024/03/12 09:53:41;;;;;;;22.17;13.70;;;;;;;;;;753694;183;808820;-62
2024/03/12 09:56:06;;;;;;;22.47;13.80;;;;;;;;;;753404;186;913123;-64
2024/03/12 09:58:32;;;;;;;23.50;14.97;;;;;;;;;;749758;183;912836;-63
2024/03/12 10:00:57;;;;;;;24.87;16.00;;;;;;;;;;752386;186;893581;-63
2024/03/12 10:03:24;;;;;;;21.70;13.93;;;;;;;;;;749806;186;910068;-63
2024/03/12 10:05:49;;;;;;;19.73;14.00;;;;;;;;;;750077;186;921318;-63
2024/03/12 10:08:16;;;;;;;20.30;14.47;;;;;;;;;;751750;183;919628;-61
2024/03/12 10:10:44;;;;;;;27.37;15.73;;;;;;;;;;756923;186;906682;-61
2024/03/12 10:13:14;;;;;;;25.20;13.13;;;;;;;;;;750071;186;918998;-61
2024/03/12 10:15:50;;;;;;;29.67;16.60;;;;;;;;;;752225;186;920623;-63
2024/03/12 10:18:16;;;;;;;17.43;12.50;;;;;;;;;;748780;186;911545;-63
2024/03/12 10:20:46;;;;;;;24.27;15.30;;;;;;;;;;756332;186;913476;-60
2024/03/12 10:23:15;;;;;;;36.00;18.83;;;;;;;;;;751573;183;920637;-60
2024/03/12 10:25:37;;;;;;;36.53;19.37;;;;;;;;;;748379;186;912195;-60
2024/03/12 10:28:05;;;;;;;39.03;19.37;;;;;;;;;;750611;186;915753;-63
2024/03/12 10:30:29;;;;;;;34.97;20.27;;;;;;;;;;754223;186;912051;-62
2024/03/12 10:32:55;;;;;;;32.85;18.83;;;;;;;;;;751812;186;916863;-62
2024/03/12 10:35:21;;;;;;;37.43;21.67;;;;;;;;;;751844;186;916082;-60
2024/03/12 10:37:49;;;;;;;29.07;17.20;;;;;;;;;;754984;186;915264;-63
2024/03/12 10:40:15;;;;;;;28.73;18.47;;;;;;;;;;749862;186;919256;-61
2024/03/12 10:42:47;;;;;;;28.60;16.00;;;;;;;;;;749879;183;919217;-60
2024/03/12 10:45:14;;;;;;;39.00;18.50;;;;;;;;;;747814;184;887845;-61
2024/03/12 10:47:39;;;;;;;34.77;19.87;;;;;;;;;;755396;184;817212;-61
2024/03/12 10:50:06;;;;;;;25.33;13.47;;;;;;;;;;752671;185;917353;-63
2024/03/12 10:52:34;;;;;;;26.70;16.90;;;;;;;;;;749568;185;921880;-64
2024/03/12 10:54:58;;;;;;;21.98;12.95;;;;;;;;;;754820;186;920553;-63
2024/03/12 10:57:22;;;;;;;12.13;9.20;;;;;;;;;;751523;183;816605;-60
2024/03/12 10:59:48;;;;;;;16.93;11.77;;;;;;;;;;749134;186;919344;-60
2024/03/12 11:02:14;;;;;;;16.07;10.30;;;;;;;;;;750398;186;918380;-63
2024/03/12 11:04:40;;;;;;;15.73;10.07;;;;;;;;;;749956;185;885672;-63
2024/03/12 11:07:06;;;;;;;15.10;10.57;;;;;;;;;;751622;183;792297;-63
2024/03/12 11:09:32;;;;;;;13.50;8.00;;;;;;;;;;748750;186;891301;-62
2024/03/12 11:11:59;;;;;;;15.43;9.57;;;;;;;;;;758280;185;848087;-63
2024/03/12 11:14:23;;;;;;;14.23;9.00;;;;;;;;;;754327;186;852126;-62
2024/03/12 11:16:49;;;;;;;14.53;10.87;;;;;;;;;;750705;186;1022453;-62
2024/03/12 11:19:22;;;;;;;13.40;9.43;;;;;;;;;;751893;186;919591;-63
2024/03/12 11:21:49;;;;;;;9.67;6.70;;;;;;;;;;745315;186;819921;-61
2024/03/12 11:24:12;;;;;;;11.40;7.40;;;;;;;;;;751161;186;919262;-61
2024/03/12 11:26:38;;;;;;;12.00;7.30;;;;;;;;;;752166;186;921676;-62
2024/03/12 11:29:04;;;;;;;13.95;8.00;;;;;;;;;;753742;186;920218;-63
2024/03/12 11:31:31;;;;;;;12.57;6.50;;;;;;;;;;752739;186;918935;-61
2024/03/12 11:33:57;;;;;;;11.73;8.18;;;;;;;;;;751598;186;919368;-60
2024/03/12 11:36:28;;;;;;;13.60;7.03;;;;;;;;;;753956;186;921594;-60
2024/03/12 11:38:54;;;;;;;11.33;6.73;;;;;;;;;;750471;186;916455;-63
2024/03/12 11:41:19;;;;;;;9.17;7.47;;;;;;;;;;749090;186;918046;-61
2024/03/12 11:43:45;;;;;;;7.32;5.68;;;;;;;;;;748411;186;919938;-64
2024/03/12 11:46:15;;;;;;;9.03;6.40;;;;;;;;;;756425;183;919827;-64
2024/03/12 11:48:41;;;;;;;8.33;6.17;;;;;;;;;;752387;186;917979;-63
2024/03/12 11:51:14;;;;;;;11.27;7.18;;;;;;;;;;749868;186;920203;-63
2024/03/12 11:53:40;;;;;;;8.37;5.63;;;;;;;;;;748568;186;923471;-62
2024/03/12 11:56:11;;;;;;;9.20;6.20;;;;;;;;;;756332;186;845978;-63
2024/03/12 11:58:41;;;;;;;11.50;6.10;;;;;;;;;;752598;186;919478;-65
2024/03/12 12:01:06;;;;;;;11.40;6.90;;;;;;;;;;752810;186;919177;-64
2024/03/12 12:03:31;;;;;;;9.68;7.30;;;;;;;;;;754836;185;876443;-63
2024/03/12 12:05:57;;;;;;;10.70;7.30;;;;;;;;;;753429;186;818369;-63
2024/03/12 12:08:23;;;;;;;10.07;6.77;;;;;;;;;;751751;186;918954;-61
2024/03/12 12:10:54;;;;;;;11.07;7.50;;;;;;;;;;754661;183;918520;-61
2024/03/12 12:13:20;;;;;;;9.13;7.70;;;;;;;;;;755348;186;863175;-61
2024/03/12 12:15:52;;;;;;;10.80;7.70;;;;;;;;;;750698;183;1021653;-63
2024/03/12 12:18:18;;;;;;;12.90;8.57;;;;;;;;;;750960;186;919071;-63
2024/03/12 12:20:44;;;;;;;11.57;7.95;;;;;;;;;;750740;186;920328;-63
2024/03/12 12:23:09;;;;;;;12.50;8.73;;;;;;;;;;757730;186;807631;-61
2024/03/12 12:25:35;;;;;;;16.40;10.00;;;;;;;;;;755696;183;624098;-64
2024/03/12 12:28:01;;;;;;;19.70;12.50;;;;;;;;;;754562;185;645028;-63
2024/03/12 12:30:27;;;;;;;35.73;17.20;;;;;;;;;;760130;185;618383;-61
2024/03/12 12:32:53;;;;;;;19.60;11.10;;;;;;;;;;754398;186;623271;-61
2024/03/12 12:35:20;;;;;;;11.80;9.03;;;;;;;;;;753204;183;632641;-60
2024/03/12 12:37:45;;;;;;;13.47;9.10;;;;;;;;;;753704;186;626827;-61
2024/03/12 12:40:16;;;;;;;11.50;9.17;;;;;;;;;;751852;186;919301;-61
2024/03/12 12:42:38;;;;;;;16.67;9.77;;;;;;;;;;751110;185;889905;-61
2024/03/12 12:45:05;;;;;;;15.53;10.10;;;;;;;;;;753223;186;918656;-61
2024/03/12 12:47:29;;;;;;;14.10;9.40;;;;;;;;;;753701;186;818386;-61
2024/03/12 12:49:55;;;;;;;15.97;8.50;;;;;;;;;;749535;183;918549;-60
2024/03/12 12:52:23;;;;;;;13.30;8.43;;;;;;;;;;752033;186;904964;-61
2024/03/12 12:54:48;;;;;;;13.87;9.97;;;;;;;;;;757485;186;918978;-61
2024/03/12 12:57:13;;;;;;;16.87;10.05;;;;;;;;;;751221;183;918934;-61
2024/03/12 12:59:39;;;;;;;15.37;10.47;;;;;;;;;;750865;184;918319;-61
2024/03/12 13:02:10;;;;;;;17.17;11.23;;;;;;;;;;754429;186;894012;-63
2024/03/12 13:04:36;;;;;;;14.53;8.57;;;;;;;;;;752549;185;917256;-63
2024/03/12 13:07:02;;;;;;;11.20;8.63;;;;;;;;;;748079;186;919107;-64
2024/03/12 13:09:28;;;;;;;9.95;6.78;;;;;;;;;;746846;186;913177;-63
2024/03/12 13:11:53;;;;;;;12.87;8.40;;;;;;;;;;754615;184;916633;-60
2024/03/12 13:14:20;;;;;;;12.27;8.23;;;;;;;;;;750422;186;919356;-62
2024/03/12 13:16:45;;;;;;;8.73;6.10;;;;;;;;;;748000;187;924603;-62
2024/03/12 13:19:11;;;;;;;12.50;8.37;;;;;;;;;;756776;185;913243;-62
2024/03/12 13:21:37;;;;;;;11.40;7.50;;;;;;;;;;752766;186;914243;-64
2024/03/12 13:24:03;;;;;;;10.37;6.80;;;;;;;;;;750931;186;897046;-62
2024/03/12 13:26:31;;;;;;;11.57;5.60;;;;;;;;;;753194;186;919704;-63
2024/03/12 13:28:54;;;;;;;15.47;8.27;;;;;;;;;;750913;186;919044;-60
2024/03/12 13:31:20;;;;;;;14.53;7.93;;;;;;;;;;738978;186;919692;-63
2024/03/12 13:33:47;;;;;;;10.57;6.47;;;;;;;;;;749764;186;920251;-61
2024/03/12 13:36:13;;;;;;;11.77;7.90;;;;;;;;;;755759;186;920360;-60
2024/03/12 13:38:39;;;;;;;9.73;6.73;;;;;;;;;;748783;184;920425;-60
2024/03/12 13:41:07;;;;;;;10.23;7.53;;;;;;;;;;747703;186;917392;-60
2024/03/12 13:43:31;;;;;;;14.30;8.40;;;;;;;;;;756955;186;919546;-63
2024/03/12 13:45:57;;;;;;;12.73;7.93;;;;;;;;;;745936;186;919739;-60
2024/03/12 13:48:23;;;;;;;15.43;8.67;;;;;;;;;;750440;183;920430;-63
2024/03/12 13:50:49;;;;;;;15.50;9.53;;;;;;;;;;749099;183;822770;-63
2024/03/12 13:53:14;;;;;;;24.70;12.63;;;;;;;;;;756234;186;633855;-63
2024/03/12 13:55:40;;;;;;;15.63;9.47;;;;;;;;;;752023;186;815679;-62
2024/03/12 13:58:07;;;;;;;110.88;70.28;;;;;;;;;;753754;183;622484;-63
2024/03/12 14:00:32;;;;;;;36.43;26.00;;;;;;;;;;757002;186;916163;-62
2024/03/12 14:02:59;;;;;;;28.43;18.93;;;;;;;;;;750835;186;819158;-62
2024/03/12 14:05:24;;;;;;;36.33;19.80;;;;;;;;;;751350;186;811584;-62
2024/03/12 14:07:50;;;;;;;17.17;14.37;;;;;;;;;;755860;183;919781;-63
2024/03/12 14:10:18;;;;;;;21.03;13.40;;;;;;;;;;750813;183;921136;-62